Current Conditions
Clear
Conditions



Pressure
1013.88 (hPa) - 29.94 (inHG)
Visibility

9.7 (km) - 6.0 (miles)
   Temperature
3  °C
37°F
-5  °C
Dewpoint
56  %
 Humidity
   Wind Speed
13  km/h
7  kts
8  mph
3.6  m/s
   Wind Direction
 150°
South South
East
   Airport Data
LRIA
Location Ia┼či Airport 13 km (8mi)
Metar :LRIA 301400Z 15007KT CAVOK 03/M05 Q1014
Thu 30th November 14:00 pm
   Raw Metar Info
Raw METAR is the most common format in the world for the transmission of observational weather data. It is highly standardized through the International Civil Aviation Organization (ICAO), which allows it to be understood throughout most of the world.
   API Info
Data Provided by
https://www.checkwx.com/weather/
   © Info
CSS/SVG/PHP scripts were developed by weather34.com for use in the weather34 template © 2015-2023

Guide Info provided by Metar-Wikipedia